sensor_id;sensor_type;location;lat;lon;timestamp;P1;durP1;ratioP1;P2;durP2;ratioP2
60588;SDS011;46421;48.610;9.334;2023-11-18T00:01:23;2.35;;;1.08;;
60588;SDS011;46421;48.610;9.334;2023-11-18T00:03:49;5.78;;;1.50;;
60588;SDS011;46421;48.610;9.334;2023-11-18T00:06:14;3.92;;;1.45;;
60588;SDS011;46421;48.610;9.334;2023-11-18T00:08:39;2.47;;;1.13;;
60588;SDS011;46421;48.610;9.334;2023-11-18T00:11:05;3.93;;;1.40;;
60588;SDS011;46421;48.610;9.334;2023-11-18T00:13:30;2.95;;;1.20;;
60588;SDS011;46421;48.610;9.334;2023-11-18T00:15:55;4.03;;;1.50;;
60588;SDS011;46421;48.610;9.334;2023-11-18T00:18:22;3.95;;;1.40;;
60588;SDS011;46421;48.610;9.334;2023-11-18T00:20:48;3.33;;;1.42;;
60588;SDS011;46421;48.610;9.334;2023-11-18T00:23:15;4.22;;;1.50;;
60588;SDS011;46421;48.610;9.334;2023-11-18T00:25:43;4.93;;;1.45;;
60588;SDS011;46421;48.610;9.334;2023-11-18T00:28:10;3.70;;;1.52;;
60588;SDS011;46421;48.610;9.334;2023-11-18T00:30:36;4.28;;;1.50;;
60588;SDS011;46421;48.610;9.334;2023-11-18T00:33:02;3.88;;;1.48;;
60588;SDS011;46421;48.610;9.334;2023-11-18T00:35:27;3.30;;;1.50;;
60588;SDS011;46421;48.610;9.334;2023-11-18T00:37:55;3.88;;;1.60;;
60588;SDS011;46421;48.610;9.334;2023-11-18T00:40:20;3.43;;;1.50;;
60588;SDS011;46421;48.610;9.334;2023-11-18T00:42:45;4.30;;;1.37;;
60588;SDS011;46421;48.610;9.334;2023-11-18T00:45:11;3.63;;;1.35;;
60588;SDS011;46421;48.610;9.334;2023-11-18T00:47:38;4.47;;;1.65;;
60588;SDS011;46421;48.610;9.334;2023-11-18T00:50:09;5.63;;;1.83;;
60588;SDS011;46421;48.610;9.334;2023-11-18T00:52:35;3.22;;;1.30;;
60588;SDS011;46421;48.610;9.334;2023-11-18T00:55:03;3.53;;;1.30;;
60588;SDS011;46421;48.610;9.334;2023-11-18T00:57:32;4.78;;;1.45;;
60588;SDS011;46421;48.610;9.334;2023-11-18T00:59:57;3.42;;;1.48;;
60588;SDS011;46421;48.610;9.334;2023-11-18T01:02:23;3.35;;;1.20;;
60588;SDS011;46421;48.610;9.334;2023-11-18T01:04:49;3.83;;;1.48;;
60588;SDS011;46421;48.610;9.334;2023-11-18T01:07:15;4.40;;;1.35;;
60588;SDS011;46421;48.610;9.334;2023-11-18T01:09:40;3.85;;;1.38;;
60588;SDS011;46421;48.610;9.334;2023-11-18T01:12:06;3.20;;;1.20;;
60588;SDS011;46421;48.610;9.334;2023-11-18T01:14:37;3.55;;;1.27;;
60588;SDS011;46421;48.610;9.334;2023-11-18T01:17:04;2.88;;;1.08;;
60588;SDS011;46421;48.610;9.334;2023-11-18T01:19:30;3.33;;;1.42;;
60588;SDS011;46421;48.610;9.334;2023-11-18T01:21:55;4.25;;;1.35;;
60588;SDS011;46421;48.610;9.334;2023-11-18T01:24:21;2.83;;;1.17;;
60588;SDS011;46421;48.610;9.334;2023-11-18T01:26:46;3.47;;;1.40;;
60588;SDS011;46421;48.610;9.334;2023-11-18T01:29:12;3.75;;;1.50;;
60588;SDS011;46421;48.610;9.334;2023-11-18T01:31:38;2.88;;;1.35;;
60588;SDS011;46421;48.610;9.334;2023-11-18T01:34:06;4.35;;;1.48;;
60588;SDS011;46421;48.610;9.334;2023-11-18T01:36:32;3.60;;;1.27;;
60588;SDS011;46421;48.610;9.334;2023-11-18T01:38:58;3.22;;;1.25;;
60588;SDS011;46421;48.610;9.334;2023-11-18T01:41:23;4.75;;;1.42;;
60588;SDS011;46421;48.610;9.334;2023-11-18T01:43:49;3.47;;;1.48;;
60588;SDS011;46421;48.610;9.334;2023-11-18T01:46:15;4.67;;;1.43;;
60588;SDS011;46421;48.610;9.334;2023-11-18T01:48:41;3.55;;;1.20;;
60588;SDS011;46421;48.610;9.334;2023-11-18T01:51:07;4.95;;;1.80;;
60588;SDS011;46421;48.610;9.334;2023-11-18T01:53:37;4.75;;;1.88;;
60588;SDS011;46421;48.610;9.334;2023-11-18T01:56:05;3.20;;;1.63;;
60588;SDS011;46421;48.610;9.334;2023-11-18T01:58:32;3.30;;;1.38;;
60588;SDS011;46421;48.610;9.334;2023-11-18T02:01:00;3.45;;;1.52;;
60588;SDS011;46421;48.610;9.334;2023-11-18T02:03:27;2.97;;;1.25;;
60588;SDS011;46421;48.610;9.334;2023-11-18T02:05:53;4.15;;;1.40;;
60588;SDS011;46421;48.610;9.334;2023-11-18T02:08:19;3.40;;;1.25;;
60588;SDS011;46421;48.610;9.334;2023-11-18T02:10:49;3.17;;;1.33;;
60588;SDS011;46421;48.610;9.334;2023-11-18T02:13:22;3.95;;;1.20;;
60588;SDS011;46421;48.610;9.334;2023-11-18T02:15:56;3.67;;;1.00;;
60588;SDS011;46421;48.610;9.334;2023-11-18T02:18:22;4.50;;;1.35;;
60588;SDS011;46421;48.610;9.334;2023-11-18T02:20:49;4.75;;;1.50;;
60588;SDS011;46421;48.610;9.334;2023-11-18T02:23:15;3.88;;;1.20;;
60588;SDS011;46421;48.610;9.334;2023-11-18T02:25:43;3.38;;;1.00;;
60588;SDS011;46421;48.610;9.334;2023-11-18T02:28:10;4.75;;;1.40;;
60588;SDS011;46421;48.610;9.334;2023-11-18T02:30:35;3.17;;;1.10;;
60588;SDS011;46421;48.610;9.334;2023-11-18T02:33:07;4.30;;;1.30;;
60588;SDS011;46421;48.610;9.334;2023-11-18T02:35:41;3.33;;;1.17;;
60588;SDS011;46421;48.610;9.334;2023-11-18T02:38:15;3.40;;;1.42;;
60588;SDS011;46421;48.610;9.334;2023-11-18T02:40:43;2.10;;;1.00;;
60588;SDS011;46421;48.610;9.334;2023-11-18T02:45:36;3.67;;;1.30;;
60588;SDS011;46421;48.610;9.334;2023-11-18T02:48:02;4.20;;;1.52;;
60588;SDS011;46421;48.610;9.334;2023-11-18T02:50:29;3.10;;;1.23;;
60588;SDS011;46421;48.610;9.334;2023-11-18T02:52:55;3.63;;;1.15;;
60588;SDS011;46421;48.610;9.334;2023-11-18T02:55:20;3.15;;;1.30;;
60588;SDS011;46421;48.610;9.334;2023-11-18T03:00:14;3.90;;;1.48;;
60588;SDS011;46421;48.610;9.334;2023-11-18T03:02:58;3.08;;;1.27;;
60588;SDS011;46421;48.610;9.334;2023-11-18T03:05:23;3.60;;;1.00;;
60588;SDS011;46421;48.610;9.334;2023-11-18T03:07:51;3.97;;;1.50;;
60588;SDS011;46421;48.610;9.334;2023-11-18T03:10:21;4.55;;;1.58;;
60588;SDS011;46421;48.610;9.334;2023-11-18T03:12:50;4.15;;;1.50;;
60588;SDS011;46421;48.610;9.334;2023-11-18T03:15:20;3.05;;;1.05;;
60588;SDS011;46421;48.610;9.334;2023-11-18T03:17:46;4.20;;;1.38;;
60588;SDS011;46421;48.610;9.334;2023-11-18T03:20:13;3.53;;;1.45;;
60588;SDS011;46421;48.610;9.334;2023-11-18T03:22:42;3.38;;;1.20;;
60588;SDS011;46421;48.610;9.334;2023-11-18T03:25:09;3.35;;;1.42;;
60588;SDS011;46421;48.610;9.334;2023-11-18T03:27:34;4.50;;;1.38;;
60588;SDS011;46421;48.610;9.334;2023-11-18T03:30:00;3.50;;;1.40;;
60588;SDS011;46421;48.610;9.334;2023-11-18T03:32:25;5.05;;;1.23;;
60588;SDS011;46421;48.610;9.334;2023-11-18T03:34:51;4.03;;;1.30;;
60588;SDS011;46421;48.610;9.334;2023-11-18T03:37:16;2.70;;;1.10;;
60588;SDS011;46421;48.610;9.334;2023-11-18T03:39:41;3.70;;;1.37;;
60588;SDS011;46421;48.610;9.334;2023-11-18T03:42:07;3.93;;;1.47;;
60588;SDS011;46421;48.610;9.334;2023-11-18T03:44:33;3.25;;;1.38;;
60588;SDS011;46421;48.610;9.334;2023-11-18T03:46:58;3.55;;;1.40;;
60588;SDS011;46421;48.610;9.334;2023-11-18T03:49:24;3.50;;;1.33;;
60588;SDS011;46421;48.610;9.334;2023-11-18T03:51:49;3.43;;;1.50;;
60588;SDS011;46421;48.610;9.334;2023-11-18T03:54:14;4.20;;;1.40;;
60588;SDS011;46421;48.610;9.334;2023-11-18T03:56:40;2.63;;;1.03;;
60588;SDS011;46421;48.610;9.334;2023-11-18T03:59:05;4.47;;;1.60;;
60588;SDS011;46421;48.610;9.334;2023-11-18T04:01:30;4.03;;;1.30;;
60588;SDS011;46421;48.610;9.334;2023-11-18T04:03:57;4.07;;;1.38;;
60588;SDS011;46421;48.610;9.334;2023-11-18T04:06:23;2.90;;;1.17;;
60588;SDS011;46421;48.610;9.334;2023-11-18T04:08:49;4.00;;;1.17;;
60588;SDS011;46421;48.610;9.334;2023-11-18T04:11:15;2.97;;;1.25;;
60588;SDS011;46421;48.610;9.334;2023-11-18T04:13:41;5.72;;;1.52;;
60588;SDS011;46421;48.610;9.334;2023-11-18T04:16:10;3.40;;;1.30;;
60588;SDS011;46421;48.610;9.334;2023-11-18T04:18:40;3.75;;;1.40;;
60588;SDS011;46421;48.610;9.334;2023-11-18T04:21:07;3.63;;;1.38;;
60588;SDS011;46421;48.610;9.334;2023-11-18T04:23:37;2.42;;;1.20;;
60588;SDS011;46421;48.610;9.334;2023-11-18T04:26:06;3.95;;;1.40;;
60588;SDS011;46421;48.610;9.334;2023-11-18T04:28:33;3.92;;;1.48;;
60588;SDS011;46421;48.610;9.334;2023-11-18T04:30:59;4.20;;;1.50;;
60588;SDS011;46421;48.610;9.334;2023-11-18T04:33:25;3.28;;;1.10;;
60588;SDS011;46421;48.610;9.334;2023-11-18T04:35:51;3.20;;;1.23;;
60588;SDS011;46421;48.610;9.334;2023-11-18T04:38:17;3.92;;;1.33;;
60588;SDS011;46421;48.610;9.334;2023-11-18T04:40:43;4.25;;;1.17;;
60588;SDS011;46421;48.610;9.334;2023-11-18T04:43:10;5.15;;;1.10;;
60588;SDS011;46421;48.610;9.334;2023-11-18T04:45:40;3.50;;;1.00;;
60588;SDS011;46421;48.610;9.334;2023-11-18T04:48:05;3.28;;;1.33;;
60588;SDS011;46421;48.610;9.334;2023-11-18T04:50:31;2.85;;;1.05;;
60588;SDS011;46421;48.610;9.334;2023-11-18T04:52:57;3.65;;;1.40;;
60588;SDS011;46421;48.610;9.334;2023-11-18T04:55:23;3.17;;;1.20;;
60588;SDS011;46421;48.610;9.334;2023-11-18T04:57:49;3.22;;;1.20;;
60588;SDS011;46421;48.610;9.334;2023-11-18T05:00:14;4.03;;;1.20;;
60588;SDS011;46421;48.610;9.334;2023-11-18T05:02:42;3.70;;;1.23;;
60588;SDS011;46421;48.610;9.334;2023-11-18T05:05:11;3.10;;;1.30;;
60588;SDS011;46421;48.610;9.334;2023-11-18T05:07:36;4.80;;;1.50;;
60588;SDS011;46421;48.610;9.334;2023-11-18T05:10:03;4.78;;;1.30;;
60588;SDS011;46421;48.610;9.334;2023-11-18T05:12:28;3.72;;;1.50;;
60588;SDS011;46421;48.610;9.334;2023-11-18T05:14:54;3.92;;;1.52;;
60588;SDS011;46421;48.610;9.334;2023-11-18T05:17:21;4.30;;;1.33;;
60588;SDS011;46421;48.610;9.334;2023-11-18T05:19:46;3.67;;;1.67;;
60588;SDS011;46421;48.610;9.334;2023-11-18T05:22:12;3.65;;;1.33;;
60588;SDS011;46421;48.610;9.334;2023-11-18T05:24:37;4.63;;;1.35;;
60588;SDS011;46421;48.610;9.334;2023-11-18T05:27:03;3.38;;;1.50;;
60588;SDS011;46421;48.610;9.334;2023-11-18T05:29:28;3.72;;;1.33;;
60588;SDS011;46421;48.610;9.334;2023-11-18T05:31:54;2.58;;;1.10;;
60588;SDS011;46421;48.610;9.334;2023-11-18T05:34:20;3.55;;;1.50;;
60588;SDS011;46421;48.610;9.334;2023-11-18T05:36:46;3.70;;;1.40;;
60588;SDS011;46421;48.610;9.334;2023-11-18T05:39:12;3.53;;;1.50;;
60588;SDS011;46421;48.610;9.334;2023-11-18T05:41:39;4.80;;;1.90;;
60588;SDS011;46421;48.610;9.334;2023-11-18T05:44:08;4.32;;;1.48;;
60588;SDS011;46421;48.610;9.334;2023-11-18T05:46:37;4.90;;;1.58;;
60588;SDS011;46421;48.610;9.334;2023-11-18T05:49:04;3.90;;;1.40;;
60588;SDS011;46421;48.610;9.334;2023-11-18T05:51:32;3.90;;;1.60;;
60588;SDS011;46421;48.610;9.334;2023-11-18T05:53:57;4.53;;;1.40;;
60588;SDS011;46421;48.610;9.334;2023-11-18T05:56:23;5.63;;;1.97;;
60588;SDS011;46421;48.610;9.334;2023-11-18T05:58:49;4.88;;;1.60;;
60588;SDS011;46421;48.610;9.334;2023-11-18T06:01:15;2.97;;;1.45;;
60588;SDS011;46421;48.610;9.334;2023-11-18T06:03:42;3.15;;;1.45;;
60588;SDS011;46421;48.610;9.334;2023-11-18T06:06:12;3.75;;;1.45;;
60588;SDS011;46421;48.610;9.334;2023-11-18T06:08:39;3.55;;;1.63;;
60588;SDS011;46421;48.610;9.334;2023-11-18T06:11:06;4.25;;;1.75;;
60588;SDS011;46421;48.610;9.334;2023-11-18T06:13:45;5.72;;;1.67;;
60588;SDS011;46421;48.610;9.334;2023-11-18T06:16:12;3.70;;;1.63;;
60588;SDS011;46421;48.610;9.334;2023-11-18T06:18:58;3.50;;;1.33;;
60588;SDS011;46421;48.610;9.334;2023-11-18T06:21:24;4.45;;;1.60;;
60588;SDS011;46421;48.610;9.334;2023-11-18T06:23:55;3.47;;;1.38;;
60588;SDS011;46421;48.610;9.334;2023-11-18T06:26:22;4.68;;;1.58;;
60588;SDS011;46421;48.610;9.334;2023-11-18T06:28:49;3.70;;;1.48;;
60588;SDS011;46421;48.610;9.334;2023-11-18T06:31:14;4.25;;;1.83;;
60588;SDS011;46421;48.610;9.334;2023-11-18T06:33:41;7.38;;;3.63;;
60588;SDS011;46421;48.610;9.334;2023-11-18T06:38:39;4.97;;;2.22;;
60588;SDS011;46421;48.610;9.334;2023-11-18T06:41:05;6.55;;;2.72;;
60588;SDS011;46421;48.610;9.334;2023-11-18T06:43:34;4.43;;;1.50;;
60588;SDS011;46421;48.610;9.334;2023-11-18T06:46:20;3.67;;;1.58;;
60588;SDS011;46421;48.610;9.334;2023-11-18T06:48:53;4.18;;;1.67;;
60588;SDS011;46421;48.610;9.334;2023-11-18T06:51:22;3.80;;;1.50;;
60588;SDS011;46421;48.610;9.334;2023-11-18T06:53:53;4.53;;;2.03;;
60588;SDS011;46421;48.610;9.334;2023-11-18T06:56:22;3.33;;;1.40;;
60588;SDS011;46421;48.610;9.334;2023-11-18T06:58:51;3.90;;;1.50;;
60588;SDS011;46421;48.610;9.334;2023-11-18T07:01:17;3.45;;;1.45;;
60588;SDS011;46421;48.610;9.334;2023-11-18T07:03:43;3.47;;;1.30;;
60588;SDS011;46421;48.610;9.334;2023-11-18T07:06:10;2.85;;;1.02;;
60588;SDS011;46421;48.610;9.334;2023-11-18T07:08:38;3.25;;;1.20;;
60588;SDS011;46421;48.610;9.334;2023-11-18T07:11:04;4.28;;;1.60;;
60588;SDS011;46421;48.610;9.334;2023-11-18T07:13:31;4.38;;;1.77;;
60588;SDS011;46421;48.610;9.334;2023-11-18T07:15:59;4.38;;;1.50;;
60588;SDS011;46421;48.610;9.334;2023-11-18T07:18:24;4.28;;;1.60;;
60588;SDS011;46421;48.610;9.334;2023-11-18T07:20:49;4.37;;;1.50;;
60588;SDS011;46421;48.610;9.334;2023-11-18T07:23:20;3.92;;;1.45;;
60588;SDS011;46421;48.610;9.334;2023-11-18T07:25:46;4.35;;;1.70;;
60588;SDS011;46421;48.610;9.334;2023-11-18T07:28:11;4.30;;;1.43;;
60588;SDS011;46421;48.610;9.334;2023-11-18T07:30:40;3.83;;;1.52;;
60588;SDS011;46421;48.610;9.334;2023-11-18T07:33:16;4.28;;;1.58;;
60588;SDS011;46421;48.610;9.334;2023-11-18T07:35:42;4.30;;;1.27;;
60588;SDS011;46421;48.610;9.334;2023-11-18T07:38:08;3.58;;;1.13;;
60588;SDS011;46421;48.610;9.334;2023-11-18T07:40:35;3.42;;;1.23;;
60588;SDS011;46421;48.610;9.334;2023-11-18T07:43:02;3.42;;;1.38;;
60588;SDS011;46421;48.610;9.334;2023-11-18T07:45:28;3.15;;;1.30;;
60588;SDS011;46421;48.610;9.334;2023-11-18T07:48:02;4.55;;;1.55;;
60588;SDS011;46421;48.610;9.334;2023-11-18T07:50:31;3.25;;;1.40;;
60588;SDS011;46421;48.610;9.334;2023-11-18T07:52:57;3.50;;;1.40;;
60588;SDS011;46421;48.610;9.334;2023-11-18T07:55:23;4.72;;;1.17;;
60588;SDS011;46421;48.610;9.334;2023-11-18T07:57:48;2.75;;;1.27;;
60588;SDS011;46421;48.610;9.334;2023-11-18T08:00:13;4.10;;;1.37;;
60588;SDS011;46421;48.610;9.334;2023-11-18T08:02:40;3.53;;;1.40;;
60588;SDS011;46421;48.610;9.334;2023-11-18T08:05:05;5.40;;;1.52;;
60588;SDS011;46421;48.610;9.334;2023-11-18T08:07:33;3.70;;;1.42;;
60588;SDS011;46421;48.610;9.334;2023-11-18T08:10:02;3.80;;;1.45;;
60588;SDS011;46421;48.610;9.334;2023-11-18T08:12:29;4.43;;;1.50;;
60588;SDS011;46421;48.610;9.334;2023-11-18T08:14:55;4.18;;;1.55;;
60588;SDS011;46421;48.610;9.334;2023-11-18T08:17:20;4.33;;;1.63;;
60588;SDS011;46421;48.610;9.334;2023-11-18T08:19:46;3.97;;;1.38;;
60588;SDS011;46421;48.610;9.334;2023-11-18T08:22:11;4.40;;;1.27;;
60588;SDS011;46421;48.610;9.334;2023-11-18T08:24:38;3.80;;;1.17;;
60588;SDS011;46421;48.610;9.334;2023-11-18T08:27:04;2.22;;;1.02;;
60588;SDS011;46421;48.610;9.334;2023-11-18T08:29:32;4.60;;;1.52;;
60588;SDS011;46421;48.610;9.334;2023-11-18T08:31:58;4.00;;;1.30;;
60588;SDS011;46421;48.610;9.334;2023-11-18T08:34:23;2.93;;;1.23;;
60588;SDS011;46421;48.610;9.334;2023-11-18T08:36:51;4.55;;;1.40;;
60588;SDS011;46421;48.610;9.334;2023-11-18T08:39:17;3.42;;;1.50;;
60588;SDS011;46421;48.610;9.334;2023-11-18T08:41:44;3.58;;;1.40;;
60588;SDS011;46421;48.610;9.334;2023-11-18T08:44:10;4.32;;;1.80;;
60588;SDS011;46421;48.610;9.334;2023-11-18T08:46:38;3.83;;;1.50;;
60588;SDS011;46421;48.610;9.334;2023-11-18T08:49:04;3.90;;;1.40;;
60588;SDS011;46421;48.610;9.334;2023-11-18T08:51:36;4.72;;;1.20;;
60588;SDS011;46421;48.610;9.334;2023-11-18T08:54:07;2.78;;;1.08;;
60588;SDS011;46421;48.610;9.334;2023-11-18T08:56:50;3.30;;;1.15;;
60588;SDS011;46421;48.610;9.334;2023-11-18T08:59:19;5.28;;;1.40;;
60588;SDS011;46421;48.610;9.334;2023-11-18T09:04:24;3.40;;;1.20;;
60588;SDS011;46421;48.610;9.334;2023-11-18T09:06:50;2.67;;;1.30;;
60588;SDS011;46421;48.610;9.334;2023-11-18T09:09:22;4.57;;;1.35;;
60588;SDS011;46421;48.610;9.334;2023-11-18T09:11:54;3.25;;;1.25;;
60588;SDS011;46421;48.610;9.334;2023-11-18T09:14:23;2.85;;;1.60;;
60588;SDS011;46421;48.610;9.334;2023-11-18T09:16:50;2.88;;;1.10;;
60588;SDS011;46421;48.610;9.334;2023-11-18T09:19:16;5.05;;;1.80;;
60588;SDS011;46421;48.610;9.334;2023-11-18T09:21:42;4.23;;;1.70;;
60588;SDS011;46421;48.610;9.334;2023-11-18T09:24:08;3.70;;;1.33;;
60588;SDS011;46421;48.610;9.334;2023-11-18T09:26:37;4.45;;;1.73;;
60588;SDS011;46421;48.610;9.334;2023-11-18T09:29:02;3.97;;;1.50;;
60588;SDS011;46421;48.610;9.334;2023-11-18T09:31:28;4.93;;;1.50;;
60588;SDS011;46421;48.610;9.334;2023-11-18T09:33:53;3.80;;;1.80;;
60588;SDS011;46421;48.610;9.334;2023-11-18T09:36:22;4.68;;;1.65;;
60588;SDS011;46421;48.610;9.334;2023-11-18T09:38:48;3.65;;;1.60;;
60588;SDS011;46421;48.610;9.334;2023-11-18T09:41:14;3.75;;;1.50;;
60588;SDS011;46421;48.610;9.334;2023-11-18T09:43:43;3.75;;;1.70;;
60588;SDS011;46421;48.610;9.334;2023-11-18T09:46:11;4.40;;;1.67;;
60588;SDS011;46421;48.610;9.334;2023-11-18T09:48:49;4.70;;;1.80;;
60588;SDS011;46421;48.610;9.334;2023-11-18T09:51:22;3.15;;;1.40;;
60588;SDS011;46421;48.610;9.334;2023-11-18T09:53:52;3.85;;;1.73;;
60588;SDS011;46421;48.610;9.334;2023-11-18T09:56:40;4.45;;;1.50;;
60588;SDS011;46421;48.610;9.334;2023-11-18T09:59:30;6.07;;;2.10;;
60588;SDS011;46421;48.610;9.334;2023-11-18T10:02:02;3.55;;;1.73;;
60588;SDS011;46421;48.610;9.334;2023-11-18T10:04:31;3.75;;;1.60;;
60588;SDS011;46421;48.610;9.334;2023-11-18T10:06:58;3.38;;;1.55;;
60588;SDS011;46421;48.610;9.334;2023-11-18T10:09:27;3.83;;;1.48;;
60588;SDS011;46421;48.610;9.334;2023-11-18T10:12:07;5.10;;;1.98;;
60588;SDS011;46421;48.610;9.334;2023-11-18T10:14:33;4.22;;;2.00;;
60588;SDS011;46421;48.610;9.334;2023-11-18T10:17:06;4.10;;;1.67;;
60588;SDS011;46421;48.610;9.334;2023-11-18T10:22:23;4.03;;;1.77;;
60588;SDS011;46421;48.610;9.334;2023-11-18T10:24:52;4.80;;;2.10;;
60588;SDS011;46421;48.610;9.334;2023-11-18T10:27:26;3.70;;;1.67;;
60588;SDS011;46421;48.610;9.334;2023-11-18T10:29:55;4.05;;;1.60;;
60588;SDS011;46421;48.610;9.334;2023-11-18T10:32:31;3.50;;;1.63;;
60588;SDS011;46421;48.610;9.334;2023-11-18T10:35:00;3.92;;;1.73;;
60588;SDS011;46421;48.610;9.334;2023-11-18T10:37:29;5.85;;;1.60;;
60588;SDS011;46421;48.610;9.334;2023-11-18T10:39:56;5.93;;;2.22;;
60588;SDS011;46421;48.610;9.334;2023-11-18T10:42:22;8.80;;;1.98;;
60588;SDS011;46421;48.610;9.334;2023-11-18T10:44:54;4.57;;;1.75;;
60588;SDS011;46421;48.610;9.334;2023-11-18T10:47:22;4.38;;;1.40;;
60588;SDS011;46421;48.610;9.334;2023-11-18T10:49:50;4.03;;;1.70;;
60588;SDS011;46421;48.610;9.334;2023-11-18T10:52:16;4.22;;;1.48;;
60588;SDS011;46421;48.610;9.334;2023-11-18T10:54:54;8.70;;;1.90;;
60588;SDS011;46421;48.610;9.334;2023-11-18T10:57:21;3.47;;;1.60;;
60588;SDS011;46421;48.610;9.334;2023-11-18T11:00:00;5.25;;;1.98;;
60588;SDS011;46421;48.610;9.334;2023-11-18T11:02:30;7.72;;;1.80;;
60588;SDS011;46421;48.610;9.334;2023-11-18T11:05:00;4.47;;;1.65;;
60588;SDS011;46421;48.610;9.334;2023-11-18T11:07:25;6.18;;;1.83;;
60588;SDS011;46421;48.610;9.334;2023-11-18T11:09:51;3.13;;;1.50;;
60588;SDS011;46421;48.610;9.334;2023-11-18T11:12:21;3.88;;;1.77;;
60588;SDS011;46421;48.610;9.334;2023-11-18T11:17:24;5.20;;;2.08;;
60588;SDS011;46421;48.610;9.334;2023-11-18T11:20:07;3.70;;;1.60;;
60588;SDS011;46421;48.610;9.334;2023-11-18T11:26:17;3.70;;;1.70;;
60588;SDS011;46421;48.610;9.334;2023-11-18T11:29:14;3.80;;;1.52;;
60588;SDS011;46421;48.610;9.334;2023-11-18T11:32:00;5.28;;;1.70;;
60588;SDS011;46421;48.610;9.334;2023-11-18T11:34:32;5.57;;;1.58;;
60588;SDS011;46421;48.610;9.334;2023-11-18T11:36:59;5.95;;;2.17;;
60588;SDS011;46421;48.610;9.334;2023-11-18T11:39:26;3.75;;;1.40;;
60588;SDS011;46421;48.610;9.334;2023-11-18T11:41:55;5.07;;;1.55;;
60588;SDS011;46421;48.610;9.334;2023-11-18T11:44:21;4.20;;;1.73;;
60588;SDS011;46421;48.610;9.334;2023-11-18T11:46:57;6.53;;;2.20;;
60588;SDS011;46421;48.610;9.334;2023-11-18T11:49:25;3.88;;;1.60;;
60588;SDS011;46421;48.610;9.334;2023-11-18T11:54:27;4.68;;;1.50;;
60588;SDS011;46421;48.610;9.334;2023-11-18T11:56:57;4.35;;;2.10;;
60588;SDS011;46421;48.610;9.334;2023-11-18T12:02:09;7.13;;;1.73;;
60588;SDS011;46421;48.610;9.334;2023-11-18T12:04:36;8.07;;;2.28;;
60588;SDS011;46421;48.610;9.334;2023-11-18T12:07:04;5.25;;;1.95;;
60588;SDS011;46421;48.610;9.334;2023-11-18T12:09:30;3.97;;;1.70;;
60588;SDS011;46421;48.610;9.334;2023-11-18T12:12:03;3.97;;;2.05;;
60588;SDS011;46421;48.610;9.334;2023-11-18T12:14:51;7.53;;;1.90;;
60588;SDS011;46421;48.610;9.334;2023-11-18T12:17:31;4.55;;;1.60;;
60588;SDS011;46421;48.610;9.334;2023-11-18T12:23:07;5.40;;;1.90;;
60588;SDS011;46421;48.610;9.334;2023-11-18T12:25:48;4.60;;;1.80;;
60588;SDS011;46421;48.610;9.334;2023-11-18T12:30:47;6.00;;;2.05;;
60588;SDS011;46421;48.610;9.334;2023-11-18T12:33:23;4.75;;;1.80;;
60588;SDS011;46421;48.610;9.334;2023-11-18T12:41:01;4.97;;;2.00;;
60588;SDS011;46421;48.610;9.334;2023-11-18T12:43:48;4.30;;;1.50;;
60588;SDS011;46421;48.610;9.334;2023-11-18T12:49:15;5.38;;;1.73;;
60588;SDS011;46421;48.610;9.334;2023-11-18T12:51:48;4.53;;;1.63;;
60588;SDS011;46421;48.610;9.334;2023-11-18T12:54:14;4.15;;;1.75;;
60588;SDS011;46421;48.610;9.334;2023-11-18T12:56:41;6.68;;;1.83;;
60588;SDS011;46421;48.610;9.334;2023-11-18T12:59:13;4.43;;;1.73;;
60588;SDS011;46421;48.610;9.334;2023-11-18T13:01:42;4.45;;;1.60;;
60588;SDS011;46421;48.610;9.334;2023-11-18T13:04:16;1.98;;;0.90;;
60588;SDS011;46421;48.610;9.334;2023-11-18T13:06:42;1.95;;;0.85;;
60588;SDS011;46421;48.610;9.334;2023-11-18T13:09:08;2.15;;;0.65;;
60588;SDS011;46421;48.610;9.334;2023-11-18T13:11:35;4.47;;;0.80;;
60588;SDS011;46421;48.610;9.334;2023-11-18T13:14:01;2.40;;;0.68;;
60588;SDS011;46421;48.610;9.334;2023-11-18T13:16:27;1.83;;;0.70;;
60588;SDS011;46421;48.610;9.334;2023-11-18T13:18:53;2.08;;;0.65;;
60588;SDS011;46421;48.610;9.334;2023-11-18T13:23:51;1.67;;;0.43;;
60588;SDS011;46421;48.610;9.334;2023-11-18T13:26:18;1.45;;;0.70;;
60588;SDS011;46421;48.610;9.334;2023-11-18T13:28:45;2.35;;;0.80;;
60588;SDS011;46421;48.610;9.334;2023-11-18T13:31:12;2.28;;;0.70;;
60588;SDS011;46421;48.610;9.334;2023-11-18T13:33:41;1.80;;;0.80;;
60588;SDS011;46421;48.610;9.334;2023-11-18T13:36:08;3.13;;;0.70;;
60588;SDS011;46421;48.610;9.334;2023-11-18T13:38:38;2.35;;;0.90;;
60588;SDS011;46421;48.610;9.334;2023-11-18T13:41:04;1.80;;;0.60;;
60588;SDS011;46421;48.610;9.334;2023-11-18T13:43:42;1.70;;;0.68;;
60588;SDS011;46421;48.610;9.334;2023-11-18T13:46:12;2.00;;;0.80;;
60588;SDS011;46421;48.610;9.334;2023-11-18T13:48:46;0.88;;;0.50;;
60588;SDS011;46421;48.610;9.334;2023-11-18T13:51:15;2.40;;;0.77;;
60588;SDS011;46421;48.610;9.334;2023-11-18T13:53:41;2.65;;;0.70;;
60588;SDS011;46421;48.610;9.334;2023-11-18T13:56:15;3.85;;;1.10;;
60588;SDS011;46421;48.610;9.334;2023-11-18T13:58:43;2.40;;;0.90;;
60588;SDS011;46421;48.610;9.334;2023-11-18T14:01:10;2.15;;;0.90;;
60588;SDS011;46421;48.610;9.334;2023-11-18T14:03:37;5.47;;;0.90;;
60588;SDS011;46421;48.610;9.334;2023-11-18T14:06:06;2.10;;;0.98;;
60588;SDS011;46421;48.610;9.334;2023-11-18T14:08:35;2.40;;;0.90;;
60588;SDS011;46421;48.610;9.334;2023-11-18T14:11:01;3.60;;;1.00;;
60588;SDS011;46421;48.610;9.334;2023-11-18T14:13:27;1.45;;;0.70;;
60588;SDS011;46421;48.610;9.334;2023-11-18T14:15:56;3.67;;;0.90;;
60588;SDS011;46421;48.610;9.334;2023-11-18T14:18:22;5.65;;;1.00;;
60588;SDS011;46421;48.610;9.334;2023-11-18T14:20:48;2.03;;;0.73;;
60588;SDS011;46421;48.610;9.334;2023-11-18T14:23:14;2.97;;;1.05;;
60588;SDS011;46421;48.610;9.334;2023-11-18T14:25:40;3.63;;;0.80;;
60588;SDS011;46421;48.610;9.334;2023-11-18T14:28:06;3.55;;;1.13;;
60588;SDS011;46421;48.610;9.334;2023-11-18T14:32:59;2.15;;;0.90;;
60588;SDS011;46421;48.610;9.334;2023-11-18T14:35:25;4.10;;;1.20;;
60588;SDS011;46421;48.610;9.334;2023-11-18T14:37:50;3.10;;;1.10;;
60588;SDS011;46421;48.610;9.334;2023-11-18T14:40:16;3.60;;;1.30;;
60588;SDS011;46421;48.610;9.334;2023-11-18T14:42:45;4.78;;;1.08;;
60588;SDS011;46421;48.610;9.334;2023-11-18T14:45:13;3.55;;;1.20;;
60588;SDS011;46421;48.610;9.334;2023-11-18T14:47:40;2.92;;;0.98;;
60588;SDS011;46421;48.610;9.334;2023-11-18T14:50:06;2.97;;;1.23;;
60588;SDS011;46421;48.610;9.334;2023-11-18T14:52:42;2.35;;;0.90;;
60588;SDS011;46421;48.610;9.334;2023-11-18T14:55:08;2.70;;;1.00;;
60588;SDS011;46421;48.610;9.334;2023-11-18T14:57:38;4.13;;;1.05;;
60588;SDS011;46421;48.610;9.334;2023-11-18T15:00:04;1.67;;;0.70;;
60588;SDS011;46421;48.610;9.334;2023-11-18T15:02:44;2.05;;;0.93;;
60588;SDS011;46421;48.610;9.334;2023-11-18T15:05:11;3.42;;;0.90;;
60588;SDS011;46421;48.610;9.334;2023-11-18T15:07:37;2.78;;;1.00;;
60588;SDS011;46421;48.610;9.334;2023-11-18T15:10:03;2.88;;;1.00;;
60588;SDS011;46421;48.610;9.334;2023-11-18T15:12:28;3.40;;;1.27;;
60588;SDS011;46421;48.610;9.334;2023-11-18T15:14:55;3.10;;;1.08;;
60588;SDS011;46421;48.610;9.334;2023-11-18T15:17:24;5.00;;;1.33;;
60588;SDS011;46421;48.610;9.334;2023-11-18T15:19:50;2.22;;;0.88;;
60588;SDS011;46421;48.610;9.334;2023-11-18T15:22:16;4.97;;;1.17;;
60588;SDS011;46421;48.610;9.334;2023-11-18T15:24:41;3.95;;;0.80;;
60588;SDS011;46421;48.610;9.334;2023-11-18T15:27:06;2.67;;;1.10;;
60588;SDS011;46421;48.610;9.334;2023-11-18T15:29:32;3.13;;;0.80;;
60588;SDS011;46421;48.610;9.334;2023-11-18T15:32:03;3.72;;;0.95;;
60588;SDS011;46421;48.610;9.334;2023-11-18T15:34:29;2.25;;;0.90;;
60588;SDS011;46421;48.610;9.334;2023-11-18T15:36:55;1.50;;;0.60;;